sensor_id;sensor_type;location;lat;lon;timestamp;P1;durP1;ratioP1;P2;durP2;ratioP2
48809;SDS011;40070;47.322;18.784;2023-05-10T00:00:45;2.22;;;0.99;;
48809;SDS011;40070;47.322;18.784;2023-05-10T00:02:46;3.55;;;1.49;;
48809;SDS011;40070;47.322;18.784;2023-05-10T00:04:47;2.59;;;1.19;;
48809;SDS011;40070;47.322;18.784;2023-05-10T00:06:49;2.97;;;1.19;;
48809;SDS011;40070;47.322;18.784;2023-05-10T00:08:50;2.68;;;1.19;;
48809;SDS011;40070;47.322;18.784;2023-05-10T00:10:51;2.87;;;1.19;;
48809;SDS011;40070;47.322;18.784;2023-05-10T00:12:51;5.25;;;1.49;;
48809;SDS011;40070;47.322;18.784;2023-05-10T00:14:52;3.54;;;1.39;;
48809;SDS011;40070;47.322;18.784;2023-05-10T00:18:54;3.54;;;1.49;;
48809;SDS011;40070;47.322;18.784;2023-05-10T00:20:55;3.24;;;1.59;;
48809;SDS011;40070;47.322;18.784;2023-05-10T00:22:56;3.71;;;1.69;;
48809;SDS011;40070;47.322;18.784;2023-05-10T00:24:57;2.96;;;1.39;;
48809;SDS011;40070;47.322;18.784;2023-05-10T00:26:58;2.87;;;1.19;;
48809;SDS011;40070;47.322;18.784;2023-05-10T00:28:59;3.64;;;1.59;;
48809;SDS011;40070;47.322;18.784;2023-05-10T00:31:00;2.78;;;1.39;;
48809;SDS011;40070;47.322;18.784;2023-05-10T00:33:01;3.43;;;1.19;;
48809;SDS011;40070;47.322;18.784;2023-05-10T00:35:01;4.19;;;1.49;;
48809;SDS011;40070;47.322;18.784;2023-05-10T00:37:02;4.10;;;1.39;;
48809;SDS011;40070;47.322;18.784;2023-05-10T00:39:03;2.97;;;1.49;;
48809;SDS011;40070;47.322;18.784;2023-05-10T00:41:06;3.45;;;1.49;;
48809;SDS011;40070;47.322;18.784;2023-05-10T00:43:07;3.46;;;1.59;;
48809;SDS011;40070;47.322;18.784;2023-05-10T00:45:08;2.88;;;1.19;;
48809;SDS011;40070;47.322;18.784;2023-05-10T00:47:09;3.55;;;1.49;;
48809;SDS011;40070;47.322;18.784;2023-05-10T00:49:10;4.03;;;1.69;;
48809;SDS011;40070;47.322;18.784;2023-05-10T00:51:10;3.06;;;1.19;;
48809;SDS011;40070;47.322;18.784;2023-05-10T00:53:12;2.77;;;1.09;;
48809;SDS011;40070;47.322;18.784;2023-05-10T00:55:13;4.20;;;1.49;;
48809;SDS011;40070;47.322;18.784;2023-05-10T00:57:14;2.86;;;1.19;;
48809;SDS011;40070;47.322;18.784;2023-05-10T00:59:16;3.05;;;1.19;;
48809;SDS011;40070;47.322;18.784;2023-05-10T01:01:17;3.45;;;1.39;;
48809;SDS011;40070;47.322;18.784;2023-05-10T01:03:18;4.02;;;1.69;;
48809;SDS011;40070;47.322;18.784;2023-05-10T01:05:20;3.53;;;1.29;;
48809;SDS011;40070;47.322;18.784;2023-05-10T01:07:20;4.10;;;1.89;;
48809;SDS011;40070;47.322;18.784;2023-05-10T01:09:21;4.58;;;1.69;;
48809;SDS011;40070;47.322;18.784;2023-05-10T01:11:22;5.06;;;1.49;;
48809;SDS011;40070;47.322;18.784;2023-05-10T01:13:42;3.62;;;1.59;;
48809;SDS011;40070;47.322;18.784;2023-05-10T01:15:42;6.10;;;1.79;;
48809;SDS011;40070;47.322;18.784;2023-05-10T01:17:43;3.43;;;1.59;;
48809;SDS011;40070;47.322;18.784;2023-05-10T01:19:49;4.87;;;2.09;;
48809;SDS011;40070;47.322;18.784;2023-05-10T01:24:40;4.19;;;1.49;;
48809;SDS011;40070;47.322;18.784;2023-05-10T01:33:26;4.28;;;1.98;;
48809;SDS011;40070;47.322;18.784;2023-05-10T01:37:54;4.94;;;2.18;;
48809;SDS011;40070;47.322;18.784;2023-05-10T01:40:19;5.03;;;2.38;;
48809;SDS011;40070;47.322;18.784;2023-05-10T01:42:29;7.05;;;2.18;;
48809;SDS011;40070;47.322;18.784;2023-05-10T01:44:46;4.40;;;1.99;;
48809;SDS011;40070;47.322;18.784;2023-05-10T01:48:51;5.73;;;2.38;;
48809;SDS011;40070;47.322;18.784;2023-05-10T01:50:58;4.39;;;1.89;;
48809;SDS011;40070;47.322;18.784;2023-05-10T01:53:06;5.14;;;2.48;;
48809;SDS011;40070;47.322;18.784;2023-05-10T01:55:08;4.37;;;1.98;;
48809;SDS011;40070;47.322;18.784;2023-05-10T01:57:08;3.89;;;1.78;;
48809;SDS011;40070;47.322;18.784;2023-05-10T01:59:14;6.37;;;1.98;;
48809;SDS011;40070;47.322;18.784;2023-05-10T02:01:13;7.24;;;1.98;;
48809;SDS011;40070;47.322;18.784;2023-05-10T02:03:18;5.02;;;2.18;;
48809;SDS011;40070;47.322;18.784;2023-05-10T02:05:20;3.89;;;1.68;;
48809;SDS011;40070;47.322;18.784;2023-05-10T02:07:22;5.04;;;2.18;;
48809;SDS011;40070;47.322;18.784;2023-05-10T02:09:25;3.98;;;1.68;;
48809;SDS011;40070;47.322;18.784;2023-05-10T02:11:26;3.97;;;1.88;;
48809;SDS011;40070;47.322;18.784;2023-05-10T02:13:29;5.27;;;2.18;;
48809;SDS011;40070;47.322;18.784;2023-05-10T02:15:33;4.05;;;1.88;;
48809;SDS011;40070;47.322;18.784;2023-05-10T02:17:35;4.43;;;2.18;;
48809;SDS011;40070;47.322;18.784;2023-05-10T02:20:01;3.68;;;1.68;;
48809;SDS011;40070;47.322;18.784;2023-05-10T02:22:01;6.99;;;2.08;;
48809;SDS011;40070;47.322;18.784;2023-05-10T02:24:03;4.63;;;2.08;;
48809;SDS011;40070;47.322;18.784;2023-05-10T02:26:04;4.55;;;1.78;;
48809;SDS011;40070;47.322;18.784;2023-05-10T02:28:05;3.40;;;1.88;;
48809;SDS011;40070;47.322;18.784;2023-05-10T02:30:07;5.56;;;1.88;;
48809;SDS011;40070;47.322;18.784;2023-05-10T02:32:08;5.67;;;2.18;;
48809;SDS011;40070;47.322;18.784;2023-05-10T02:34:13;5.60;;;1.98;;
48809;SDS011;40070;47.322;18.784;2023-05-10T02:36:14;6.91;;;1.88;;
48809;SDS011;40070;47.322;18.784;2023-05-10T02:38:16;5.12;;;2.38;;
48809;SDS011;40070;47.322;18.784;2023-05-10T02:40:21;4.35;;;1.78;;
48809;SDS011;40070;47.322;18.784;2023-05-10T02:42:26;5.12;;;1.88;;
48809;SDS011;40070;47.322;18.784;2023-05-10T02:44:27;4.73;;;2.08;;
48809;SDS011;40070;47.322;18.784;2023-05-10T02:46:28;5.56;;;1.98;;
48809;SDS011;40070;47.322;18.784;2023-05-10T02:48:29;4.44;;;2.28;;
48809;SDS011;40070;47.322;18.784;2023-05-10T02:50:33;4.44;;;2.08;;
48809;SDS011;40070;47.322;18.784;2023-05-10T02:52:42;5.96;;;2.18;;
48809;SDS011;40070;47.322;18.784;2023-05-10T02:54:44;3.77;;;1.68;;
48809;SDS011;40070;47.322;18.784;2023-05-10T02:56:56;5.94;;;1.98;;
48809;SDS011;40070;47.322;18.784;2023-05-10T02:58:55;3.97;;;1.88;;
48809;SDS011;40070;47.322;18.784;2023-05-10T03:00:56;5.28;;;1.78;;
48809;SDS011;40070;47.322;18.784;2023-05-10T03:02:57;5.02;;;2.18;;
48809;SDS011;40070;47.322;18.784;2023-05-10T03:04:58;5.59;;;2.48;;
48809;SDS011;40070;47.322;18.784;2023-05-10T03:06:59;4.71;;;2.18;;
48809;SDS011;40070;47.322;18.784;2023-05-10T03:09:00;4.32;;;1.98;;
48809;SDS011;40070;47.322;18.784;2023-05-10T03:11:17;5.43;;;2.27;;
48809;SDS011;40070;47.322;18.784;2023-05-10T03:15:37;4.25;;;1.98;;
48809;SDS011;40070;47.322;18.784;2023-05-10T03:19:46;4.99;;;2.18;;
48809;SDS011;40070;47.322;18.784;2023-05-10T03:21:46;4.14;;;2.08;;
48809;SDS011;40070;47.322;18.784;2023-05-10T03:24:01;4.79;;;1.88;;
48809;SDS011;40070;47.322;18.784;2023-05-10T03:25:55;7.50;;;2.77;;
48809;SDS011;40070;47.322;18.784;2023-05-10T03:27:57;4.69;;;2.17;;
48809;SDS011;40070;47.322;18.784;2023-05-10T03:29:58;5.10;;;1.88;;
48809;SDS011;40070;47.322;18.784;2023-05-10T03:31:59;4.70;;;2.47;;
48809;SDS011;40070;47.322;18.784;2023-05-10T03:34:00;4.70;;;2.18;;
48809;SDS011;40070;47.322;18.784;2023-05-10T03:36:01;5.36;;;2.18;;
48809;SDS011;40070;47.322;18.784;2023-05-10T03:38:02;5.64;;;2.27;;
48809;SDS011;40070;47.322;18.784;2023-05-10T03:40:03;4.04;;;1.88;;
48809;SDS011;40070;47.322;18.784;2023-05-10T03:42:03;6.86;;;2.08;;
48809;SDS011;40070;47.322;18.784;2023-05-10T03:44:28;4.32;;;1.98;;
48809;SDS011;40070;47.322;18.784;2023-05-10T03:46:29;4.51;;;1.78;;
48809;SDS011;40070;47.322;18.784;2023-05-10T03:48:30;4.61;;;1.98;;
48809;SDS011;40070;47.322;18.784;2023-05-10T03:50:31;4.50;;;1.98;;
48809;SDS011;40070;47.322;18.784;2023-05-10T03:52:32;4.33;;;1.68;;
48809;SDS011;40070;47.322;18.784;2023-05-10T03:54:57;5.10;;;2.47;;
48809;SDS011;40070;47.322;18.784;2023-05-10T03:57:03;4.80;;;1.88;;
48809;SDS011;40070;47.322;18.784;2023-05-10T03:59:12;3.58;;;1.78;;
48809;SDS011;40070;47.322;18.784;2023-05-10T04:01:01;4.99;;;2.18;;
48809;SDS011;40070;47.322;18.784;2023-05-10T04:03:02;5.44;;;1.98;;
48809;SDS011;40070;47.322;18.784;2023-05-10T04:05:27;4.88;;;2.27;;
48809;SDS011;40070;47.322;18.784;2023-05-10T04:07:28;4.13;;;1.78;;
48809;SDS011;40070;47.322;18.784;2023-05-10T04:09:29;4.49;;;1.98;;
48809;SDS011;40070;47.322;18.784;2023-05-10T04:11:36;4.39;;;1.97;;
48809;SDS011;40070;47.322;18.784;2023-05-10T04:13:37;4.67;;;2.07;;
48809;SDS011;40070;47.322;18.784;2023-05-10T04:15:39;5.49;;;2.27;;
48809;SDS011;40070;47.322;18.784;2023-05-10T04:20:11;4.38;;;2.17;;
48809;SDS011;40070;47.322;18.784;2023-05-10T04:22:11;5.60;;;2.07;;
48809;SDS011;40070;47.322;18.784;2023-05-10T04:24:12;5.12;;;1.97;;
48809;SDS011;40070;47.322;18.784;2023-05-10T04:26:13;4.49;;;2.17;;
48809;SDS011;40070;47.322;18.784;2023-05-10T04:28:14;4.04;;;2.17;;
48809;SDS011;40070;47.322;18.784;2023-05-10T04:30:15;5.20;;;2.48;;
48809;SDS011;40070;47.322;18.784;2023-05-10T04:32:16;4.53;;;2.18;;
48809;SDS011;40070;47.322;18.784;2023-05-10T04:34:17;4.35;;;2.18;;
48809;SDS011;40070;47.322;18.784;2023-05-10T04:36:17;4.26;;;2.38;;
48809;SDS011;40070;47.322;18.784;2023-05-10T04:40:44;4.37;;;2.18;;
48809;SDS011;40070;47.322;18.784;2023-05-10T04:42:45;4.67;;;2.18;;
48809;SDS011;40070;47.322;18.784;2023-05-10T04:44:46;5.69;;;2.48;;
48809;SDS011;40070;47.322;18.784;2023-05-10T04:46:47;5.21;;;2.28;;
48809;SDS011;40070;47.322;18.784;2023-05-10T04:48:47;6.55;;;2.08;;
48809;SDS011;40070;47.322;18.784;2023-05-10T04:50:48;5.69;;;2.78;;
48809;SDS011;40070;47.322;18.784;2023-05-10T04:52:49;4.77;;;2.08;;
48809;SDS011;40070;47.322;18.784;2023-05-10T04:54:51;4.86;;;2.18;;
48809;SDS011;40070;47.322;18.784;2023-05-10T04:57:16;4.29;;;1.98;;
48809;SDS011;40070;47.322;18.784;2023-05-10T04:58:53;4.58;;;2.08;;
48809;SDS011;40070;47.322;18.784;2023-05-10T05:09:21;4.40;;;2.18;;
48809;SDS011;40070;47.322;18.784;2023-05-10T05:11:22;4.38;;;2.08;;
48809;SDS011;40070;47.322;18.784;2023-05-10T05:13:24;4.01;;;1.79;;
48809;SDS011;40070;47.322;18.784;2023-05-10T05:15:33;5.07;;;2.09;;
48809;SDS011;40070;47.322;18.784;2023-05-10T05:17:38;4.68;;;2.08;;
48809;SDS011;40070;47.322;18.784;2023-05-10T05:33:32;4.42;;;2.19;;
48809;SDS011;40070;47.322;18.784;2023-05-10T05:35:38;5.58;;;2.39;;
48809;SDS011;40070;47.322;18.784;2023-05-10T05:37:58;4.71;;;2.29;;
48809;SDS011;40070;47.322;18.784;2023-05-10T05:44:28;5.48;;;2.39;;
48809;SDS011;40070;47.322;18.784;2023-05-10T05:49:17;6.09;;;2.29;;
48809;SDS011;40070;47.322;18.784;2023-05-10T05:51:05;8.99;;;3.19;;
48809;SDS011;40070;47.322;18.784;2023-05-10T05:53:31;6.30;;;2.29;;
48809;SDS011;40070;47.322;18.784;2023-05-10T05:55:37;3.97;;;2.09;;
48809;SDS011;40070;47.322;18.784;2023-05-10T05:57:57;5.63;;;1.89;;
48809;SDS011;40070;47.322;18.784;2023-05-10T06:12:57;6.82;;;2.49;;
48809;SDS011;40070;47.322;18.784;2023-05-10T06:17:08;4.89;;;1.99;;
48809;SDS011;40070;47.322;18.784;2023-05-10T06:19:09;4.40;;;1.89;;
48809;SDS011;40070;47.322;18.784;2023-05-10T06:26:01;9.76;;;1.99;;
48809;SDS011;40070;47.322;18.784;2023-05-10T06:32:19;4.20;;;1.70;;
48809;SDS011;40070;47.322;18.784;2023-05-10T06:36:26;3.73;;;1.80;;
48809;SDS011;40070;47.322;18.784;2023-05-10T06:38:27;4.80;;;1.70;;
48809;SDS011;40070;47.322;18.784;2023-05-10T06:43:02;3.73;;;1.70;;
48809;SDS011;40070;47.322;18.784;2023-05-10T06:49:41;4.23;;;1.60;;
48809;SDS011;40070;47.322;18.784;2023-05-10T06:56:11;3.15;;;1.40;;
48809;SDS011;40070;47.322;18.784;2023-05-10T07:06:30;4.73;;;1.80;;
48809;SDS011;40070;47.322;18.784;2023-05-10T07:11:06;2.67;;;1.20;;
48809;SDS011;40070;47.322;18.784;2023-05-10T07:13:43;3.36;;;1.50;;
48809;SDS011;40070;47.322;18.784;2023-05-10T07:15:49;3.36;;;1.40;;
48809;SDS011;40070;47.322;18.784;2023-05-10T07:21:36;3.46;;;1.30;;
48809;SDS011;40070;47.322;18.784;2023-05-10T07:25:46;3.46;;;1.70;;
48809;SDS011;40070;47.322;18.784;2023-05-10T07:27:43;3.86;;;1.30;;
48809;SDS011;40070;47.322;18.784;2023-05-10T07:29:44;3.96;;;1.50;;
48809;SDS011;40070;47.322;18.784;2023-05-10T07:37:54;3.56;;;1.50;;
48809;SDS011;40070;47.322;18.784;2023-05-10T07:40:17;3.56;;;1.60;;
48809;SDS011;40070;47.322;18.784;2023-05-10T07:42:42;4.65;;;2.20;;
48809;SDS011;40070;47.322;18.784;2023-05-10T07:44:43;3.46;;;1.40;;
48809;SDS011;40070;47.322;18.784;2023-05-10T07:53:22;3.17;;;1.40;;
48809;SDS011;40070;47.322;18.784;2023-05-10T07:57:24;4.27;;;1.50;;
48809;SDS011;40070;47.322;18.784;2023-05-10T07:59:49;3.28;;;1.10;;
48809;SDS011;40070;47.322;18.784;2023-05-10T08:04:05;8.44;;;1.50;;
48809;SDS011;40070;47.322;18.784;2023-05-10T08:06:20;4.57;;;1.30;;
48809;SDS011;40070;47.322;18.784;2023-05-10T08:08:25;2.48;;;1.10;;
48809;SDS011;40070;47.322;18.784;2023-05-10T08:18:45;5.17;;;1.50;;
48809;SDS011;40070;47.322;18.784;2023-05-10T08:40:31;5.47;;;1.50;;
48809;SDS011;40070;47.322;18.784;2023-05-10T08:58:23;3.38;;;1.30;;
48809;SDS011;40070;47.322;18.784;2023-05-10T09:00:31;3.48;;;1.30;;
48809;SDS011;40070;47.322;18.784;2023-05-10T09:32:37;3.89;;;1.90;;
48809;SDS011;40070;47.322;18.784;2023-05-10T09:34:40;2.29;;;1.10;;
48809;SDS011;40070;47.322;18.784;2023-05-10T09:47:16;1.80;;;0.90;;
48809;SDS011;40070;47.322;18.784;2023-05-10T09:49:25;3.09;;;1.20;;
48809;SDS011;40070;47.322;18.784;2023-05-10T09:54:35;3.29;;;1.30;;
48809;SDS011;40070;47.322;18.784;2023-05-10T09:56:17;5.09;;;1.60;;
48809;SDS011;40070;47.322;18.784;2023-05-10T09:58:16;4.09;;;1.30;;
48809;SDS011;40070;47.322;18.784;2023-05-10T10:00:34;9.67;;;2.90;;
48809;SDS011;40070;47.322;18.784;2023-05-10T10:13:36;5.39;;;1.40;;
48809;SDS011;40070;47.322;18.784;2023-05-10T10:15:49;2.99;;;1.30;;
48809;SDS011;40070;47.322;18.784;2023-05-10T10:17:50;2.59;;;1.00;;
48809;SDS011;40070;47.322;18.784;2023-05-10T10:45:13;2.49;;;0.90;;
48809;SDS011;40070;47.322;18.784;2023-05-10T10:53:33;2.00;;;0.80;;
48809;SDS011;40070;47.322;18.784;2023-05-10T10:55:49;2.00;;;1.00;;
48809;SDS011;40070;47.322;18.784;2023-05-10T10:58:08;2.29;;;0.90;;
48809;SDS011;40070;47.322;18.784;2023-05-10T11:04:50;2.29;;;0.90;;
48809;SDS011;40070;47.322;18.784;2023-05-10T11:07:16;2.29;;;0.90;;
48809;SDS011;40070;47.322;18.784;2023-05-10T11:14:36;2.19;;;0.80;;
48809;SDS011;40070;47.322;18.784;2023-05-10T11:30:54;2.19;;;0.80;;
48809;SDS011;40070;47.322;18.784;2023-05-10T11:52:27;2.20;;;0.80;;
48809;SDS011;40070;47.322;18.784;2023-05-10T12:02:24;2.59;;;0.80;;
48809;SDS011;40070;47.322;18.784;2023-05-10T12:08:46;2.99;;;0.90;;
48809;SDS011;40070;47.322;18.784;2023-05-10T12:11:20;2.10;;;0.90;;
48809;SDS011;40070;47.322;18.784;2023-05-10T12:24:00;1.80;;;0.70;;
48809;SDS011;40070;47.322;18.784;2023-05-10T12:32:48;2.00;;;0.70;;
48809;SDS011;40070;47.322;18.784;2023-05-10T12:56:01;2.40;;;0.90;;
48809;SDS011;40070;47.322;18.784;2023-05-10T13:06:38;2.00;;;0.80;;
48809;SDS011;40070;47.322;18.784;2023-05-10T13:09:03;2.10;;;0.60;;
48809;SDS011;40070;47.322;18.784;2023-05-10T13:11:17;3.69;;;0.80;;
48809;SDS011;40070;47.322;18.784;2023-05-10T13:28:47;2.90;;;0.70;;
48809;SDS011;40070;47.322;18.784;2023-05-10T13:31:12;3.10;;;0.90;;
48809;SDS011;40070;47.322;18.784;2023-05-10T13:33:13;1.60;;;0.70;;
48809;SDS011;40070;47.322;18.784;2023-05-10T13:35:32;2.10;;;0.70;;
48809;SDS011;40070;47.322;18.784;2023-05-10T13:47:52;1.90;;;0.80;;
48809;SDS011;40070;47.322;18.784;2023-05-10T13:49:53;2.00;;;0.80;;
48809;SDS011;40070;47.322;18.784;2023-05-10T13:51:54;3.70;;;1.00;;
48809;SDS011;40070;47.322;18.784;2023-05-10T13:53:55;3.50;;;0.80;;
48809;SDS011;40070;47.322;18.784;2023-05-10T13:56:13;4.49;;;0.90;;
48809;SDS011;40070;47.322;18.784;2023-05-10T13:58:14;2.40;;;1.00;;
48809;SDS011;40070;47.322;18.784;2023-05-10T14:00:15;2.30;;;1.00;;
48809;SDS011;40070;47.322;18.784;2023-05-10T14:02:15;2.30;;;0.80;;
48809;SDS011;40070;47.322;18.784;2023-05-10T14:04:16;3.79;;;1.00;;
48809;SDS011;40070;47.322;18.784;2023-05-10T14:06:17;4.20;;;1.10;;
48809;SDS011;40070;47.322;18.784;2023-05-10T14:08:18;3.00;;;0.80;;
48809;SDS011;40070;47.322;18.784;2023-05-10T14:10:19;2.00;;;0.80;;
48809;SDS011;40070;47.322;18.784;2023-05-10T14:12:20;2.80;;;0.90;;
48809;SDS011;40070;47.322;18.784;2023-05-10T14:14:21;3.10;;;0.80;;
48809;SDS011;40070;47.322;18.784;2023-05-10T14:16:22;2.89;;;1.00;;
48809;SDS011;40070;47.322;18.784;2023-05-10T14:18:22;1.80;;;0.80;;
48809;SDS011;40070;47.322;18.784;2023-05-10T14:20:23;2.20;;;0.80;;
48809;SDS011;40070;47.322;18.784;2023-05-10T14:22:48;2.99;;;0.90;;
48809;SDS011;40070;47.322;18.784;2023-05-10T14:24:49;3.29;;;0.80;;
48809;SDS011;40070;47.322;18.784;2023-05-10T14:26:50;2.70;;;1.00;;
48809;SDS011;40070;47.322;18.784;2023-05-10T14:28:51;2.20;;;0.90;;
48809;SDS011;40070;47.322;18.784;2023-05-10T14:30:52;2.50;;;1.00;;
48809;SDS011;40070;47.322;18.784;2023-05-10T14:33:05;2.40;;;0.70;;
48809;SDS011;40070;47.322;18.784;2023-05-10T14:35:06;3.09;;;0.80;;
48809;SDS011;40070;47.322;18.784;2023-05-10T14:37:06;2.10;;;0.90;;
48809;SDS011;40070;47.322;18.784;2023-05-10T14:39:07;1.50;;;0.70;;
48809;SDS011;40070;47.322;18.784;2023-05-10T14:41:08;2.10;;;0.90;;
48809;SDS011;40070;47.322;18.784;2023-05-10T14:43:09;2.50;;;1.00;;
48809;SDS011;40070;47.322;18.784;2023-05-10T14:45:10;2.30;;;1.10;;
48809;SDS011;40070;47.322;18.784;2023-05-10T14:49:24;2.90;;;1.40;;
48809;SDS011;40070;47.322;18.784;2023-05-10T14:51:25;3.00;;;1.50;;
48809;SDS011;40070;47.322;18.784;2023-05-10T14:53:51;3.40;;;1.40;;
48809;SDS011;40070;47.322;18.784;2023-05-10T14:55:51;2.20;;;0.90;;
48809;SDS011;40070;47.322;18.784;2023-05-10T14:57:52;1.80;;;0.70;;
48809;SDS011;40070;47.322;18.784;2023-05-10T14:59:53;2.00;;;0.70;;
48809;SDS011;40070;47.322;18.784;2023-05-10T15:01:54;2.00;;;0.80;;
48809;SDS011;40070;47.322;18.784;2023-05-10T15:03:55;2.60;;;0.90;;
48809;SDS011;40070;47.322;18.784;2023-05-10T15:08:04;5.09;;;0.80;;
48809;SDS011;40070;47.322;18.784;2023-05-10T15:10:05;2.30;;;0.80;;
48809;SDS011;40070;47.322;18.784;2023-05-10T15:12:07;2.70;;;1.10;;
48809;SDS011;40070;47.322;18.784;2023-05-10T15:14:07;2.10;;;0.90;;
48809;SDS011;40070;47.322;18.784;2023-05-10T15:16:08;3.20;;;1.20;;
48809;SDS011;40070;47.322;18.784;2023-05-10T15:18:09;2.80;;;1.00;;
48809;SDS011;40070;47.322;18.784;2023-05-10T15:20:20;2.40;;;1.00;;
48809;SDS011;40070;47.322;18.784;2023-05-10T15:22:35;2.90;;;1.10;;
48809;SDS011;40070;47.322;18.784;2023-05-10T15:24:36;3.80;;;1.00;;
48809;SDS011;40070;47.322;18.784;2023-05-10T15:26:58;1.90;;;0.60;;
48809;SDS011;40070;47.322;18.784;2023-05-10T15:48:13;3.00;;;0.80;;
48809;SDS011;40070;47.322;18.784;2023-05-10T15:52:25;2.70;;;0.60;;
48809;SDS011;40070;47.322;18.784;2023-05-10T15:54:26;1.40;;;0.60;;
48809;SDS011;40070;47.322;18.784;2023-05-10T15:56:27;2.20;;;0.70;;
48809;SDS011;40070;47.322;18.784;2023-05-10T15:58:28;1.80;;;0.80;;
48809;SDS011;40070;47.322;18.784;2023-05-10T16:00:29;1.90;;;0.70;;
48809;SDS011;40070;47.322;18.784;2023-05-10T16:02:30;2.10;;;0.70;;
48809;SDS011;40070;47.322;18.784;2023-05-10T16:04:31;1.40;;;0.50;;
48809;SDS011;40070;47.322;18.784;2023-05-10T16:06:31;1.20;;;0.60;;
48809;SDS011;40070;47.322;18.784;2023-05-10T16:08:32;1.70;;;0.60;;
48809;SDS011;40070;47.322;18.784;2023-05-10T16:10:33;1.60;;;0.70;;
48809;SDS011;40070;47.322;18.784;2023-05-10T16:12:34;1.70;;;0.60;;
48809;SDS011;40070;47.322;18.784;2023-05-10T16:14:35;2.10;;;0.80;;
48809;SDS011;40070;47.322;18.784;2023-05-10T16:16:36;1.90;;;0.70;;
48809;SDS011;40070;47.322;18.784;2023-05-10T16:19:02;2.10;;;0.80;;
48809;SDS011;40070;47.322;18.784;2023-05-10T16:21:03;2.00;;;0.70;;
48809;SDS011;40070;47.322;18.784;2023-05-10T16:23:05;1.70;;;0.50;;
48809;SDS011;40070;47.322;18.784;2023-05-10T16:25:29;1.30;;;0.50;;
48809;SDS011;40070;47.322;18.784;2023-05-10T16:28:20;2.20;;;0.70;;
48809;SDS011;40070;47.322;18.784;2023-05-10T16:30:24;1.70;;;0.60;;
48809;SDS011;40070;47.322;18.784;2023-05-10T16:38:48;1.90;;;0.90;;
48809;SDS011;40070;47.322;18.784;2023-05-10T16:51:25;1.80;;;0.60;;
48809;SDS011;40070;47.322;18.784;2023-05-10T16:53:38;4.39;;;0.80;;
48809;SDS011;40070;47.322;18.784;2023-05-10T17:32:23;1.80;;;0.80;;
48809;SDS011;40070;47.322;18.784;2023-05-10T17:34:44;2.69;;;0.80;;
48809;SDS011;40070;47.322;18.784;2023-05-10T17:41:13;1.60;;;0.60;;
48809;SDS011;40070;47.322;18.784;2023-05-10T17:43:14;1.10;;;0.40;;
48809;SDS011;40070;47.322;18.784;2023-05-10T17:45:14;1.00;;;0.50;;
48809;SDS011;40070;47.322;18.784;2023-05-10T17:47:16;1.89;;;0.70;;
48809;SDS011;40070;47.322;18.784;2023-05-10T17:49:16;2.49;;;0.60;;
48809;SDS011;40070;47.322;18.784;2023-05-10T17:51:19;1.60;;;0.60;;
48809;SDS011;40070;47.322;18.784;2023-05-10T17:53:20;1.90;;;0.50;;
48809;SDS011;40070;47.322;18.784;2023-05-10T17:57:22;1.60;;;0.60;;
48809;SDS011;40070;47.322;18.784;2023-05-10T17:59:40;1.40;;;0.60;;
48809;SDS011;40070;47.322;18.784;2023-05-10T18:01:24;1.20;;;0.50;;
48809;SDS011;40070;47.322;18.784;2023-05-10T18:03:25;1.60;;;0.50;;
48809;SDS011;40070;47.322;18.784;2023-05-10T18:07:51;2.09;;;0.80;;
48809;SDS011;40070;47.322;18.784;2023-05-10T18:09:52;2.39;;;0.60;;
48809;SDS011;40070;47.322;18.784;2023-05-10T18:11:53;2.99;;;0.70;;
48809;SDS011;40070;47.322;18.784;2023-05-10T18:13:54;1.60;;;0.60;;
48809;SDS011;40070;47.322;18.784;2023-05-10T18:15:55;2.39;;;0.90;;
48809;SDS011;40070;47.322;18.784;2023-05-10T18:17:56;2.39;;;1.30;;
48809;SDS011;40070;47.322;18.784;2023-05-10T18:20:09;2.69;;;0.70;;
48809;SDS011;40070;47.322;18.784;2023-05-10T18:22:10;2.49;;;0.80;;
48809;SDS011;40070;47.322;18.784;2023-05-10T18:24:11;1.89;;;0.70;;
48809;SDS011;40070;47.322;18.784;2023-05-10T18:26:12;1.79;;;0.70;;
48809;SDS011;40070;47.322;18.784;2023-05-10T18:28:37;2.59;;;0.70;;
48809;SDS011;40070;47.322;18.784;2023-05-10T18:30:39;1.89;;;0.70;;
48809;SDS011;40070;47.322;18.784;2023-05-10T18:32:39;1.50;;;0.60;;
48809;SDS011;40070;47.322;18.784;2023-05-10T18:34:43;2.19;;;0.90;;
48809;SDS011;40070;47.322;18.784;2023-05-10T18:36:44;1.79;;;0.60;;
48809;SDS011;40070;47.322;18.784;2023-05-10T18:38:45;2.29;;;0.80;;
48809;SDS011;40070;47.322;18.784;2023-05-10T18:40:47;1.89;;;0.70;;
48809;SDS011;40070;47.322;18.784;2023-05-10T18:42:48;3.89;;;0.90;;
48809;SDS011;40070;47.322;18.784;2023-05-10T18:44:49;2.69;;;1.00;;
48809;SDS011;40070;47.322;18.784;2023-05-10T18:46:49;3.29;;;1.20;;
48809;SDS011;40070;47.322;18.784;2023-05-10T18:48:50;2.39;;;0.70;;
48809;SDS011;40070;47.322;18.784;2023-05-10T18:50:51;2.49;;;0.80;;
48809;SDS011;40070;47.322;18.784;2023-05-10T18:52:52;2.19;;;0.60;;
48809;SDS011;40070;47.322;18.784;2023-05-10T18:54:53;2.49;;;0.70;;
48809;SDS011;40070;47.322;18.784;2023-05-10T18:56:54;2.59;;;0.80;;
48809;SDS011;40070;47.322;18.784;2023-05-10T18:58:57;1.59;;;0.70;;
48809;SDS011;40070;47.322;18.784;2023-05-10T19:00:58;2.49;;;0.80;;
48809;SDS011;40070;47.322;18.784;2023-05-10T19:02:59;2.29;;;0.80;;
48809;SDS011;40070;47.322;18.784;2023-05-10T19:05:24;3.38;;;1.00;;
48809;SDS011;40070;47.322;18.784;2023-05-10T19:07:25;4.67;;;0.80;;
48809;SDS011;40070;47.322;18.784;2023-05-10T19:09:26;1.39;;;0.70;;
48809;SDS011;40070;47.322;18.784;2023-05-10T19:11:27;3.58;;;0.80;;
48809;SDS011;40070;47.322;18.784;2023-05-10T19:13:28;1.89;;;0.70;;
48809;SDS011;40070;47.322;18.784;2023-05-10T19:15:28;2.49;;;1.00;;
48809;SDS011;40070;47.322;18.784;2023-05-10T19:17:29;2.48;;;1.00;;
48809;SDS011;40070;47.322;18.784;2023-05-10T19:19:52;3.97;;;1.00;;
48809;SDS011;40070;47.322;18.784;2023-05-10T19:21:31;2.58;;;0.90;;
48809;SDS011;40070;47.322;18.784;2023-05-10T19:23:32;1.49;;;0.60;;
48809;SDS011;40070;47.322;18.784;2023-05-10T19:25:33;4.17;;;0.90;;
48809;SDS011;40070;47.322;18.784;2023-05-10T19:27:34;2.78;;;1.00;;
48809;SDS011;40070;47.322;18.784;2023-05-10T19:29:35;2.19;;;0.80;;
48809;SDS011;40070;47.322;18.784;2023-05-10T19:31:37;2.09;;;0.90;;
48809;SDS011;40070;47.322;18.784;2023-05-10T19:33:37;2.88;;;1.00;;
48809;SDS011;40070;47.322;18.784;2023-05-10T19:35:39;3.67;;;0.80;;
48809;SDS011;40070;47.322;18.784;2023-05-10T19:37:39;3.38;;;1.10;;
48809;SDS011;40070;47.322;18.784;2023-05-10T19:39:41;2.68;;;1.00;;
48809;SDS011;40070;47.322;18.784;2023-05-10T19:41:42;2.58;;;0.80;;
48809;SDS011;40070;47.322;18.784;2023-05-10T19:43:43;5.46;;;1.30;;
48809;SDS011;40070;47.322;18.784;2023-05-10T19:45:44;2.98;;;1.00;;
48809;SDS011;40070;47.322;18.784;2023-05-10T19:47:45;3.27;;;1.10;;
48809;SDS011;40070;47.322;18.784;2023-05-10T19:49:47;4.86;;;1.00;;
48809;SDS011;40070;47.322;18.784;2023-05-10T19:51:48;3.08;;;1.10;;
48809;SDS011;40070;47.322;18.784;2023-05-10T19:53:48;3.57;;;1.30;;
48809;SDS011;40070;47.322;18.784;2023-05-10T19:56:03;3.37;;;1.20;;
48809;SDS011;40070;47.322;18.784;2023-05-10T19:58:01;2.48;;;1.00;;
48809;SDS011;40070;47.322;18.784;2023-05-10T20:00:02;1.69;;;0.90;;
48809;SDS011;40070;47.322;18.784;2023-05-10T20:02:02;3.57;;;1.20;;
48809;SDS011;40070;47.322;18.784;2023-05-10T20:04:04;3.47;;;1.00;;
48809;SDS011;40070;47.322;18.784;2023-05-10T20:06:05;2.78;;;1.00;;
48809;SDS011;40070;47.322;18.784;2023-05-10T20:08:06;3.77;;;0.90;;